createdAt,value
2022-12-08T00:04:11.949Z,2.70
2022-12-08T00:09:23.960Z,2.60
2022-12-08T00:14:28.194Z,2.57
2022-12-08T00:19:31.585Z,2.30
2022-12-08T00:24:38.711Z,2.00
2022-12-08T00:29:44.692Z,2.00
2022-12-08T00:34:47.936Z,2.50
2022-12-08T00:39:51.470Z,2.77
2022-12-08T00:44:54.947Z,2.83
2022-12-08T00:49:58.052Z,2.50
2022-12-08T00:55:01.065Z,2.60
2022-12-08T01:00:05.296Z,2.70
2022-12-08T01:05:08.853Z,2.57
2022-12-08T01:10:11.860Z,2.50
2022-12-08T01:15:14.994Z,2.20
2022-12-08T01:20:18.279Z,2.93
2022-12-08T01:25:21.380Z,2.97
2022-12-08T01:30:25.202Z,2.93
2022-12-08T01:35:28.165Z,2.50
2022-12-08T01:40:31.570Z,2.93
2022-12-08T01:45:34.855Z,2.90
2022-12-08T01:50:39.433Z,2.93
2022-12-08T01:55:43.780Z,3.07
2022-12-08T02:00:47.005Z,2.43
2022-12-08T02:05:49.931Z,2.77
2022-12-08T02:10:53.657Z,2.47
2022-12-08T02:16:24.690Z,2.47
2022-12-08T02:21:41.708Z,2.60
2022-12-08T02:27:23.376Z,2.80
2022-12-08T02:32:36.797Z,2.70
2022-12-08T02:38:03.457Z,2.07
2022-12-08T02:43:14.656Z,2.90
2022-12-08T02:48:17.823Z,3.23
2022-12-08T02:53:20.707Z,3.27
2022-12-08T02:59:14.294Z,3.50
2022-12-08T03:04:26.409Z,3.70
2022-12-08T03:09:29.416Z,3.73
2022-12-08T03:14:34.377Z,3.67
2022-12-08T03:19:39.196Z,3.20
2022-12-08T03:24:44.192Z,2.90
2022-12-08T03:29:48.808Z,2.73
2022-12-08T03:34:53.343Z,2.53
2022-12-08T03:39:56.707Z,2.20
2022-12-08T03:44:59.733Z,2.17
2022-12-08T03:50:03.402Z,2.20
2022-12-08T03:55:07.359Z,2.17
2022-12-08T04:00:14.889Z,2.13
2022-12-08T04:05:17.822Z,2.20
2022-12-08T04:10:20.876Z,2.33
2022-12-08T04:15:24.002Z,2.03
2022-12-08T04:20:27.057Z,2.00
2022-12-08T04:25:29.862Z,2.10
2022-12-08T04:30:33.358Z,2.13
2022-12-08T04:35:36.170Z,2.23
2022-12-08T04:40:39.100Z,2.30
2022-12-08T04:45:42.596Z,2.13
2022-12-08T04:50:46.019Z,2.60
2022-12-08T04:55:50.002Z,2.47
2022-12-08T05:00:52.929Z,3.03
2022-12-08T05:05:56.026Z,3.67
2022-12-08T05:11:03.895Z,9.60
2022-12-08T05:16:09.829Z,4.17
2022-12-08T05:21:13.222Z,3.90
2022-12-08T05:26:16.060Z,5.43
2022-12-08T05:31:19.223Z,3.03
2022-12-08T05:36:22.213Z,0.90
2022-12-08T05:41:25.083Z,1.33
2022-12-08T05:46:28.025Z,1.80
2022-12-08T05:51:31.035Z,1.70
2022-12-08T05:56:33.792Z,1.90
2022-12-08T06:01:36.983Z,2.77
2022-12-08T06:06:39.988Z,2.17
2022-12-08T06:11:44.024Z,2.13
2022-12-08T06:16:46.862Z,2.77
2022-12-08T06:21:49.830Z,2.60
2022-12-08T06:26:53.295Z,2.70
2022-12-08T06:31:56.406Z,6.80
2022-12-08T06:36:59.933Z,3.20
2022-12-08T06:42:21.567Z,3.13
2022-12-08T06:47:26.343Z,4.40
2022-12-08T06:52:29.568Z,5.40
2022-12-08T06:57:32.745Z,7.20
2022-12-08T07:02:36.187Z,3.67
2022-12-08T07:07:39.511Z,3.63
2022-12-08T07:12:42.642Z,8.17
2022-12-08T07:17:45.735Z,9.80
2022-12-08T07:22:50.400Z,17.23
2022-12-08T07:27:53.556Z,3.83
2022-12-08T07:32:58.679Z,3.30
2022-12-08T07:38:01.815Z,3.23
2022-12-08T07:43:04.648Z,2.70
2022-12-08T07:48:10.278Z,2.70
2022-12-08T07:53:13.703Z,3.07
2022-12-08T07:58:19.088Z,3.77
2022-12-08T08:03:22.749Z,3.10
2022-12-08T08:08:25.763Z,3.07
2022-12-08T08:13:29.179Z,3.03
2022-12-08T08:18:32.261Z,2.33
2022-12-08T08:23:35.976Z,2.00
2022-12-08T08:28:39.856Z,2.77
2022-12-08T08:33:42.904Z,3.20
2022-12-08T08:38:46.723Z,3.60
2022-12-08T08:43:50.255Z,3.77
2022-12-08T08:48:53.453Z,8.50
2022-12-08T08:53:57.021Z,7.93
2022-12-08T08:59:00.111Z,6.47
2022-12-08T09:04:03.545Z,7.60
2022-12-08T09:09:06.755Z,11.67
2022-12-08T09:14:15.029Z,5.50
2022-12-08T09:19:18.159Z,6.53
2022-12-08T09:24:21.179Z,11.53
2022-12-08T09:29:25.575Z,38.47
2022-12-08T09:34:30.351Z,9.83
2022-12-08T09:39:33.918Z,3.90
2022-12-08T09:44:39.817Z,4.70
2022-12-08T09:49:47.859Z,5.20
2022-12-08T09:54:51.163Z,5.47
2022-12-08T10:00:01.983Z,6.83
2022-12-08T10:05:14.084Z,5.80
2022-12-08T10:10:31.198Z,6.60
2022-12-08T10:16:06.859Z,5.93
2022-12-08T10:21:17.265Z,4.83
2022-12-08T10:26:21.836Z,6.07
2022-12-08T10:31:26.013Z,6.37
2022-12-08T10:36:56.383Z,6.50
2022-12-08T10:42:14.956Z,6.60
2022-12-08T10:47:22.160Z,6.17
2022-12-08T10:52:25.449Z,7.47
2022-12-08T10:57:28.304Z,9.50
2022-12-08T11:02:31.319Z,7.43
2022-12-08T11:07:35.546Z,12.47
2022-12-08T11:12:38.564Z,6.53
2022-12-08T11:17:41.861Z,12.63
2022-12-08T11:22:46.844Z,8.23
2022-12-08T11:27:54.335Z,124.83
2022-12-08T11:33:13.623Z,13.03
2022-12-08T11:38:27.658Z,7.60
2022-12-08T11:43:33.851Z,11.93
2022-12-08T11:48:37.919Z,8.63
2022-12-08T11:53:51.587Z,8.63
2022-12-08T11:58:57.791Z,8.87
2022-12-08T12:04:22.394Z,8.80
2022-12-08T12:09:43.770Z,10.93
2022-12-08T12:14:47.166Z,12.70
2022-12-08T12:19:51.084Z,9.07
2022-12-08T12:24:54.117Z,8.77
2022-12-08T12:30:07.029Z,22.00
2022-12-08T12:35:18.042Z,11.50
2022-12-08T12:40:24.522Z,10.40
2022-12-08T12:45:34.514Z,11.50
2022-12-08T12:50:45.466Z,13.23
2022-12-08T12:56:04.659Z,12.60
2022-12-08T13:01:10.757Z,14.30
2022-12-08T13:06:15.174Z,17.97
2022-12-08T13:11:18.798Z,13.67
2022-12-08T13:16:25.288Z,14.70
2022-12-08T13:21:46.863Z,12.47
2022-12-08T13:26:51.386Z,31.07
2022-12-08T13:31:58.264Z,18.10
2022-12-08T13:37:16.345Z,13.73
2022-12-08T13:42:31.939Z,16.00
2022-12-08T13:47:54.346Z,11.07
2022-12-08T13:54:35.298Z,13.03
2022-12-08T13:58:51.776Z,15.17
2022-12-08T14:09:27.517Z,15.50
2022-12-08T14:15:01.281Z,16.83
2022-12-08T14:19:57.615Z,16.90
2022-12-08T14:25:01.186Z,16.40
2022-12-08T14:30:14.486Z,19.90
2022-12-08T14:35:33.736Z,18.60
2022-12-08T14:40:38.929Z,19.43
2022-12-08T14:45:45.385Z,22.97
2022-12-08T14:51:02.126Z,21.80
2022-12-08T14:56:11.572Z,27.57
2022-12-08T15:01:17.509Z,22.00
2022-12-08T15:06:22.045Z,26.37
2022-12-08T15:11:26.966Z,22.97
2022-12-08T15:16:42.118Z,26.50
2022-12-08T15:21:45.325Z,27.93
2022-12-08T15:26:49.801Z,23.33
2022-12-08T15:31:55.089Z,26.97
2022-12-08T15:36:58.295Z,26.57
2022-12-08T15:42:02.568Z,24.80
2022-12-08T15:47:06.135Z,28.73
2022-12-08T15:52:37.206Z,28.07
2022-12-08T16:03:27.870Z,27.67
2022-12-08T16:08:46.221Z,25.37
2022-12-08T16:14:00.880Z,28.87
2022-12-08T16:19:16.728Z,31.60
2022-12-08T16:24:19.730Z,29.37
2022-12-08T16:29:23.343Z,38.23
2022-12-08T16:34:26.284Z,30.13
2022-12-08T16:39:29.282Z,32.10
2022-12-08T16:44:32.359Z,34.63
2022-12-08T16:49:39.242Z,34.33
2022-12-08T16:54:42.063Z,32.83
2022-12-08T16:59:44.919Z,32.83
2022-12-08T17:04:48.099Z,34.60
2022-12-08T17:09:51.270Z,34.20
2022-12-08T17:14:54.513Z,32.87
2022-12-08T17:19:57.696Z,36.47
2022-12-08T17:25:05.005Z,38.27
2022-12-08T17:30:11.302Z,31.80
2022-12-08T17:35:14.774Z,32.50
2022-12-08T17:40:18.306Z,31.33
2022-12-08T17:45:21.171Z,29.80
2022-12-08T17:50:24.175Z,31.57
2022-12-08T17:55:27.241Z,34.23
2022-12-08T18:00:30.551Z,27.90
2022-12-08T18:05:35.536Z,29.00
2022-12-08T18:10:38.463Z,30.23
2022-12-08T18:15:41.539Z,29.13
2022-12-08T18:20:44.742Z,28.30
2022-12-08T18:25:47.757Z,29.40
2022-12-08T18:30:50.914Z,27.80
2022-12-08T18:35:56.229Z,25.30
2022-12-08T18:41:25.856Z,27.03
2022-12-08T18:46:28.977Z,26.00
2022-12-08T18:51:32.264Z,27.57
2022-12-08T18:56:36.521Z,27.33
2022-12-08T19:01:40.131Z,27.40
2022-12-08T19:06:45.183Z,28.37
2022-12-08T19:11:48.705Z,29.00
2022-12-08T19:16:52.131Z,28.50
2022-12-08T19:21:55.364Z,27.60
2022-12-08T19:26:58.131Z,37.07
2022-12-08T19:32:01.393Z,35.53
2022-12-08T19:37:04.723Z,41.53
2022-12-08T19:42:39.386Z,37.33
2022-12-08T19:47:43.224Z,32.43
2022-12-08T19:52:46.445Z,53.50
2022-12-08T19:57:50.002Z,31.93
2022-12-08T20:02:53.054Z,28.27
2022-12-08T20:07:56.744Z,27.13
2022-12-08T20:13:18.763Z,28.77
2022-12-08T20:18:22.063Z,37.20
2022-12-08T20:23:27.347Z,27.77
2022-12-08T20:28:30.874Z,23.57
2022-12-08T20:33:34.181Z,25.00
2022-12-08T20:38:37.137Z,23.60
2022-12-08T20:43:40.198Z,23.90
2022-12-08T20:48:43.950Z,21.80
2022-12-08T20:53:47.683Z,22.20
2022-12-08T20:58:51.567Z,23.97
2022-12-08T21:03:55.043Z,22.63
2022-12-08T21:08:58.524Z,22.87
2022-12-08T21:14:02.095Z,24.57
2022-12-08T21:19:06.386Z,25.67
2022-12-08T21:24:11.282Z,26.23
2022-12-08T21:29:14.399Z,25.13
2022-12-08T21:34:17.946Z,29.13
2022-12-08T21:39:21.657Z,24.80
2022-12-08T21:44:24.663Z,29.63
2022-12-08T21:49:30.243Z,42.83
2022-12-08T21:54:33.419Z,29.20
2022-12-08T21:59:36.587Z,27.23
2022-12-08T22:04:40.352Z,25.40
2022-12-08T22:09:43.694Z,28.07
2022-12-08T22:14:47.281Z,29.13
2022-12-08T22:19:50.347Z,32.50
2022-12-08T22:24:53.550Z,33.63
2022-12-08T22:29:57.316Z,26.43
2022-12-08T22:35:01.084Z,27.83
2022-12-08T22:40:05.572Z,26.57
2022-12-08T22:45:09.948Z,26.53
2022-12-08T22:50:13.254Z,30.23
2022-12-08T22:55:16.657Z,35.13
2022-12-08T23:00:20.446Z,34.23
2022-12-08T23:05:24.105Z,27.03
2022-12-08T23:10:28.042Z,26.20
2022-12-08T23:15:31.680Z,27.00
2022-12-08T23:20:35.810Z,32.17
2022-12-08T23:25:43.082Z,31.37
2022-12-08T23:30:46.903Z,31.63
2022-12-08T23:35:58.846Z,25.40
2022-12-08T23:41:03.094Z,23.63
2022-12-08T23:46:07.025Z,21.60
2022-12-08T23:51:11.136Z,23.13
2022-12-08T23:56:16.812Z,23.07
